Time;durP1;ratioP1;P1;durP2;ratioP2;P2;SDS_P1;SDS_P2;PMS_P1;PMS_P2;Temp;Humidity;BMP_temperature;BMP_pressure;BME280_temperature;BME280_humidity;BME280_pressure;Samples;Min_cycle;Max_cycle;Signal;HPM_P1;HPM_P2
2022/04/14 06:55:12;;;;;;;13.38;7.72;;;12.10;87.30;;;;;;5068647;28;20429;-47
2022/04/14 06:57:37;;;;;;;17.30;8.27;;;12.30;86.10;;;;;;5065420;28;20115;-56
2022/04/14 07:00:06;;;;;;;16.05;7.50;;;12.30;86.10;;;;;;5065049;28;20116;-41
2022/04/14 07:02:32;;;;;;;20.40;8.25;;;12.70;85.30;;;;;;5065348;28;20060;-45
2022/04/14 07:05:01;;;;;;;13.88;9.00;;;13.00;84.80;;;;;;5066137;28;20063;-42
2022/04/14 07:07:27;;;;;;;20.38;8.63;;;13.30;82.40;;;;;;5067378;28;20031;-41
2022/04/14 07:09:53;;;;;;;12.63;7.68;;;13.50;82.30;;;;;;5063852;28;20029;-43
2022/04/14 07:12:18;;;;;;;19.08;8.88;;;13.80;81.50;;;;;;5059901;28;20110;-41
2022/04/14 07:14:44;;;;;;;16.55;7.57;;;13.80;80.30;;;;;;5062790;28;20123;-42
2022/04/14 07:17:10;;;;;;;18.55;7.50;;;13.90;78.30;;;;;;5063049;28;20079;-42
2022/04/14 07:19:36;;;;;;;10.10;6.63;;;13.90;78.40;;;;;;5064096;28;20033;-40
2022/04/14 07:22:02;;;;;;;12.73;7.60;;;13.90;80.10;;;;;;5066589;28;20385;-41
2022/04/14 07:24:28;;;;;;;10.55;6.85;;;13.90;78.40;;;;;;5066812;28;20068;-41
2022/04/14 07:26:53;;;;;;;12.73;6.85;;;14.10;82.70;;;;;;5057149;28;20052;-45
2022/04/14 07:29:19;;;;;;;16.33;8.05;;;14.50;78.20;;;;;;5051443;28;20033;-43
2022/04/14 07:31:45;;;;;;;14.52;7.60;;;14.60;75.30;;;;;;5058126;28;20097;-42
2022/04/14 07:34:13;;;;;;;16.25;8.27;;;14.60;75.00;;;;;;5046279;28;20045;-45
2022/04/14 07:36:39;;;;;;;11.60;7.50;;;14.60;76.60;;;;;;5060296;28;20086;-47
2022/04/14 07:39:05;;;;;;;11.20;8.20;;;14.80;75.80;;;;;;5066734;28;20057;-45
2022/04/14 07:41:31;;;;;;;12.43;8.07;;;14.90;76.90;;;;;;5067180;28;20074;-42
2022/04/14 07:43:58;;;;;;;17.27;8.18;;;14.60;75.00;;;;;;5067195;28;20044;-45
2022/04/14 07:46:23;;;;;;;24.63;8.70;;;14.30;74.70;;;;;;5066962;28;20099;-48
2022/04/14 07:48:49;;;;;;;23.40;8.07;;;14.10;79.00;;;;;;5066953;28;20036;-47
2022/04/14 07:51:14;;;;;;;11.70;7.13;;;14.30;78.60;;;;;;5065913;28;20077;-50
2022/04/14 07:53:40;;;;;;;13.07;8.02;;;14.50;78.30;;;;;;5066816;28;20530;-45
2022/04/14 07:56:06;;;;;;;26.83;10.93;;;14.70;75.50;;;;;;5061538;28;20090;-46
2022/04/14 07:58:33;;;;;;;17.13;8.98;;;14.50;75.80;;;;;;5060671;28;20154;-46
2022/04/14 08:00:59;;;;;;;11.75;7.45;;;14.50;77.90;;;;;;5050311;28;20037;-47
2022/04/14 08:03:25;;;;;;;12.52;7.53;;;14.70;77.70;;;;;;5045874;28;20455;-43
2022/04/14 08:05:50;;;;;;;11.10;7.05;;;14.70;77.00;;;;;;5053542;28;20055;-44
2022/04/14 08:08:18;;;;;;;14.20;7.97;;;15.20;78.90;;;;;;5040352;28;20062;-48
2022/04/14 08:10:46;;;;;;;11.60;8.52;;;15.80;74.00;;;;;;5041377;28;20033;-40
2022/04/14 08:13:12;;;;;;;13.00;8.10;;;16.50;73.20;;;;;;5052686;28;20095;-49
2022/04/14 08:15:39;;;;;;;10.27;6.35;;;16.50;73.10;;;;;;5052635;28;20179;-42
2022/04/14 08:18:06;;;;;;;7.88;6.13;;;16.60;72.30;;;;;;5053054;28;20083;-52
2022/04/14 08:20:33;;;;;;;7.60;6.18;;;16.60;72.10;;;;;;5052835;28;20033;-48
2022/04/14 08:23:00;;;;;;;10.15;6.18;;;16.50;71.60;;;;;;5051304;28;20040;-49
2022/04/14 08:25:34;;;;;;;12.73;7.20;;;16.50;72.20;;;;;;5050833;28;20033;-47
2022/04/14 08:28:02;;;;;;;13.30;7.60;;;16.40;71.10;;;;;;5049413;28;20542;-51
2022/04/14 08:30:30;;;;;;;11.85;7.30;;;16.40;71.50;;;;;;5048171;28;20576;-50
2022/04/14 08:32:58;;;;;;;10.40;7.10;;;16.20;70.50;;;;;;5051200;28;20047;-45
2022/04/14 08:35:26;;;;;;;11.30;7.22;;;16.40;73.60;;;;;;5043789;28;20459;-43
2022/04/14 08:37:51;;;;;;;13.65;8.57;;;16.50;70.40;;;;;;5032917;28;20025;-45
2022/04/14 08:40:19;;;;;;;13.00;8.93;;;15.80;72.60;;;;;;5045880;28;20052;-50
2022/04/14 08:43:11;;;;;;;12.45;8.35;;;15.50;76.50;;;;;;5050630;28;20061;-47
2022/04/14 08:45:46;;;;;;;14.75;9.30;;;15.80;77.10;;;;;;5048711;28;20059;-49
2022/04/14 08:48:15;;;;;;;11.77;8.82;;;15.80;75.00;;;;;;5039943;28;20017;-44
2022/04/14 08:50:42;;;;;;;14.15;8.32;;;15.90;76.90;;;;;;5032589;28;20087;-45
2022/04/14 08:53:09;;;;;;;14.10;9.18;;;16.40;76.40;;;;;;5048107;28;20067;-43
2022/04/14 08:55:40;;;;;;;13.07;9.18;;;16.70;71.10;;;;;;5052269;28;20037;-50
2022/04/14 08:58:10;;;;;;;12.38;8.70;;;16.70;71.30;;;;;;5052333;28;20028;-46
2022/04/14 09:00:36;;;;;;;11.77;8.65;;;17.00;74.80;;;;;;5049266;28;20053;-47
2022/04/14 09:03:03;;;;;;;15.25;8.98;;;17.60;70.80;;;;;;5051896;28;20151;-46
2022/04/14 09:05:29;;;;;;;12.77;9.25;;;17.90;69.50;;;;;;5051656;28;20021;-45
2022/04/14 09:07:54;;;;;;;14.07;9.48;;;18.30;67.20;;;;;;5037519;28;20076;-43
2022/04/14 09:10:21;;;;;;;13.55;10.13;;;18.90;67.20;;;;;;5037507;28;20026;-45
2022/04/14 09:12:51;;;;;;;13.75;8.95;;;20.10;66.10;;;;;;5051022;28;20025;-46
2022/04/14 09:15:18;;;;;;;12.23;9.40;;;20.70;62.30;;;;;;5051900;28;20020;-47
2022/04/14 09:17:43;;;;;;;15.93;10.57;;;21.00;59.70;;;;;;5050201;28;20028;-44
2022/04/14 09:20:32;;;;;;;15.52;10.85;;;21.20;59.40;;;;;;5051322;28;20100;-47
2022/04/14 09:23:25;;;;;;;14.07;11.60;;;21.30;60.60;;;;;;5050362;28;20429;-48
2022/04/14 09:26:14;;;;;;;15.63;11.07;;;22.30;58.20;;;;;;5048078;28;20039;-44
2022/04/14 09:28:41;;;;;;;15.27;11.48;;;23.00;53.80;;;;;;5045290;28;20388;-47
2022/04/14 09:31:07;;;;;;;14.95;11.88;;;23.60;53.10;;;;;;5031726;28;20033;-49
2022/04/14 09:33:35;;;;;;;13.95;10.70;;;24.50;49.40;;;;;;5031564;28;20064;-44
2022/04/14 09:36:04;;;;;;;15.52;11.65;;;25.00;50.20;;;;;;5031480;28;20545;-44
2022/04/14 09:38:47;;;;;;;;;;;26.00;47.70;;;;;;5032228;28;20033;-54
2022/04/14 09:41:27;;;;;;;12.70;10.77;;;26.50;46.50;;;;;;5035335;28;20264;-54
2022/04/14 09:43:54;;;;;;;12.52;10.13;;;26.80;42.40;;;;;;5039107;28;20076;-44
2022/04/14 09:46:20;;;;;;;13.68;10.30;;;26.80;43.10;;;;;;5038331;28;20531;-52
2022/04/14 09:49:06;;;;;;;12.18;9.48;;;27.00;41.50;;;;;;5048199;28;20112;-53
2022/04/14 09:51:33;;;;;;;11.90;9.70;;;27.80;43.70;;;;;;5050980;28;20459;-47
2022/04/14 09:54:06;;;;;;;11.25;8.38;;;28.60;41.40;;;;;;5050705;28;20500;-46
2022/04/14 09:56:40;;;;;;;10.00;8.13;;;29.20;38.90;;;;;;5051033;28;20396;-45
2022/04/14 09:59:07;;;;;;;13.70;8.27;;;29.10;38.10;;;;;;5051182;28;20091;-48
2022/04/14 10:01:33;;;;;;;10.52;7.47;;;29.20;38.40;;;;;;5048665;28;20361;-43
2022/04/14 10:03:58;;;;;;;10.88;7.82;;;29.50;41.10;;;;;;5048249;28;20412;-46
2022/04/14 10:06:24;;;;;;;10.20;7.72;;;29.40;39.40;;;;;;5048727;28;20472;-45
2022/04/14 10:08:51;;;;;;;10.90;8.00;;;29.90;37.10;;;;;;5049723;28;21231;-46
2022/04/14 10:11:25;;;;;;;10.68;7.40;;;29.70;36.00;;;;;;5049458;28;20549;-42
2022/04/14 10:13:50;;;;;;;10.52;6.75;;;30.10;37.00;;;;;;5041641;28;20124;-48
2022/04/14 10:16:23;;;;;;;9.82;6.97;;;30.00;37.60;;;;;;5043791;28;20140;-49
2022/04/14 10:18:49;;;;;;;9.27;5.95;;;30.10;34.70;;;;;;5048130;28;20032;-52
2022/04/14 10:21:15;;;;;;;11.55;5.95;;;29.50;35.60;;;;;;5050635;28;20106;-46
2022/04/14 10:23:41;;;;;;;11.32;6.20;;;29.00;39.60;;;;;;5047047;28;20373;-52
2022/04/14 10:26:08;;;;;;;9.25;5.32;;;28.10;39.10;;;;;;5051356;28;20419;-52
2022/04/14 10:28:36;;;;;;;8.63;5.97;;;28.70;39.40;;;;;;5050643;28;20025;-45
2022/04/14 10:31:02;;;;;;;10.13;6.43;;;27.70;41.30;;;;;;5050746;28;20085;-57
2022/04/14 10:33:29;;;;;;;8.73;5.40;;;26.50;41.60;;;;;;5051227;28;20112;-55
2022/04/14 10:35:55;;;;;;;8.85;5.20;;;26.50;44.90;;;;;;5042652;28;20023;-47
2022/04/14 10:38:31;;;;;;;9.05;5.40;;;26.70;44.10;;;;;;5048443;28;20104;-51
2022/04/14 10:41:02;;;;;;;7.65;5.38;;;27.10;40.30;;;;;;5045964;28;20036;-49
2022/04/14 10:43:29;;;;;;;7.82;4.95;;;27.50;39.90;;;;;;5048326;28;20036;-56
2022/04/14 10:46:00;;;;;;;9.48;5.60;;;27.60;41.40;;;;;;5049370;28;20021;-55
2022/04/14 10:48:33;;;;;;;9.02;3.78;;;27.00;42.80;;;;;;5048264;28;20063;-41
2022/04/14 10:51:19;;;;;;;8.30;3.72;;;26.00;40.60;;;;;;5046696;28;20057;-45
2022/04/14 10:53:55;;;;;;;10.27;3.55;;;24.50;43.00;;;;;;5036660;28;20045;-50
2022/04/14 10:56:44;;;;;;;5.60;2.55;;;23.10;46.30;;;;;;5049747;28;20094;-47
2022/04/14 10:59:41;;;;;;;5.82;2.13;;;21.80;50.20;;;;;;5049457;28;20021;-53
2022/04/14 11:02:07;;;;;;;5.85;1.77;;;20.80;52.70;;;;;;5030027;28;20123;-45
2022/04/14 11:04:42;;;;;;;5.55;1.52;;;20.50;52.60;;;;;;5029788;28;20556;-45
2022/04/14 11:07:21;;;;;;;3.95;1.30;;;20.10;51.80;;;;;;5030099;28;20484;-47
2022/04/14 11:09:50;;;;;;;3.28;1.13;;;19.60;52.20;;;;;;5041835;28;20106;-46
2022/04/14 11:12:24;;;;;;;3.00;1.20;;;19.50;56.00;;;;;;5050135;28;20025;-46
2022/04/14 11:14:57;;;;;;;2.72;1.17;;;19.60;55.80;;;;;;5049890;28;20017;-42
2022/04/14 11:17:38;;;;;;;5.40;1.20;;;20.00;53.70;;;;;;5050213;28;20086;-44
2022/04/14 11:20:38;;;;;;;5.32;1.67;;;20.10;54.30;;;;;;5049983;28;20045;-47
2022/04/14 11:23:11;;;;;;;3.47;1.50;;;20.70;54.60;;;;;;5050254;28;20397;-46
2022/04/14 11:25:49;;;;;;;5.63;1.80;;;20.90;52.00;;;;;;5050130;28;20029;-44
2022/04/14 11:28:34;;;;;;;3.53;1.50;;;21.20;52.20;;;;;;5050206;28;20025;-52
2022/04/14 11:31:18;;;;;;;3.05;1.38;;;21.20;50.50;;;;;;5050199;28;20104;-45
2022/04/14 11:33:45;;;;;;;2.13;1.25;;;21.40;50.00;;;;;;5049931;28;20036;-51
2022/04/14 11:36:16;;;;;;;4.22;1.80;;;21.40;53.80;;;;;;5049972;28;20021;-43
2022/04/14 11:39:02;;;;;;;5.20;1.70;;;22.00;48.80;;;;;;5049382;28;20162;-43
2022/04/14 11:41:53;;;;;;;3.67;1.40;;;22.00;47.90;;;;;;5050692;28;20158;-46
2022/04/14 11:44:22;;;;;;;4.13;1.55;;;22.60;49.20;;;;;;5051839;28;20095;-48
2022/04/14 11:46:52;;;;;;;3.15;1.35;;;23.40;50.20;;;;;;5050921;28;20120;-51
2022/04/14 11:49:21;;;;;;;2.35;1.13;;;24.40;43.70;;;;;;5042179;28;20116;-42
2022/04/14 11:52:00;;;;;;;3.67;1.50;;;25.00;42.60;;;;;;5049334;28;20444;-47
2022/04/14 11:54:29;;;;;;;3.30;1.08;;;25.60;42.10;;;;;;5036538;28;20077;-48
2022/04/14 11:56:58;;;;;;;2.65;0.85;;;26.50;39.00;;;;;;5033850;28;20032;-43
2022/04/14 11:59:32;;;;;;;2.03;0.88;;;27.80;36.10;;;;;;5039012;28;20568;-45
2022/04/14 12:02:18;;;;;;;3.28;0.77;;;27.30;34.60;;;;;;5037887;28;20534;-45
2022/04/14 12:04:48;;;;;;;2.15;0.75;;;26.30;33.40;;;;;;5033197;28;20037;-46
2022/04/14 12:07:15;;;;;;;2.80;0.90;;;25.40;37.30;;;;;;5033500;28;20039;-44
2022/04/14 12:09:41;;;;;;;3.63;1.30;;;24.80;40.00;;;;;;5037497;28;20096;-42
2022/04/14 12:12:19;;;;;;;2.75;1.20;;;24.80;40.70;;;;;;5037756;28;20033;-50
2022/04/14 12:14:48;;;;;;;2.78;0.90;;;24.60;38.70;;;;;;5039410;28;20053;-47
2022/04/14 12:17:16;;;;;;;2.67;0.80;;;23.70;43.20;;;;;;5033829;28;20039;-44
2022/04/14 12:19:55;;;;;;;3.90;0.90;;;24.90;40.00;;;;;;5037513;28;20021;-45
2022/04/14 12:22:26;;;;;;;2.10;0.60;;;24.90;40.80;;;;;;5052067;28;20483;-48
2022/04/14 12:25:01;;;;;;;1.90;0.50;;;24.90;36.70;;;;;;5052870;28;20052;-44
2022/04/14 12:27:34;;;;;;;2.42;0.73;;;25.00;38.10;;;;;;5052853;28;20049;-47
2022/04/14 12:30:07;;;;;;;0.90;0.50;;;25.40;40.40;;;;;;5052499;28;20051;-44
2022/04/14 12:32:32;;;;;;;4.20;0.75;;;25.50;39.80;;;;;;5052507;28;20464;-44
2022/04/14 12:34:58;;;;;;;3.00;0.75;;;26.80;37.90;;;;;;5052512;28;20021;-44
2022/04/14 12:37:34;;;;;;;3.10;0.90;;;27.60;35.50;;;;;;5052595;28;20033;-43
2022/04/14 12:40:15;;;;;;;3.25;1.05;;;28.90;36.10;;;;;;5052816;28;20025;-44
2022/04/14 12:42:42;;;;;;;1.83;0.80;;;28.50;31.60;;;;;;5052695;28;20036;-46
2022/04/14 12:45:08;;;;;;;2.38;0.85;;;26.20;36.50;;;;;;5049247;28;20033;-46
2022/04/14 12:47:34;;;;;;;1.85;0.60;;;26.00;40.30;;;;;;5050765;28;20435;-43
2022/04/14 12:50:01;;;;;;;2.45;0.68;;;25.70;37.60;;;;;;5051043;28;20025;-43
2022/04/14 12:52:27;;;;;;;2.72;0.68;;;25.70;36.70;;;;;;5043740;28;20036;-48
2022/04/14 12:54:53;;;;;;;2.58;0.60;;;25.40;38.70;;;;;;5031054;28;20053;-48
2022/04/14 12:57:21;;;;;;;1.25;0.45;;;25.60;40.90;;;;;;5032426;28;20094;-45
2022/04/14 13:00:22;;;;;;;1.92;0.77;;;25.30;39.30;;;;;;5031276;28;20029;-44
2022/04/14 13:03:13;;;;;;;2.35;0.93;;;25.50;38.30;;;;;;5013489;28;20210;-47
2022/04/14 13:05:43;;;;;;;1.55;0.70;;;25.30;39.10;;;;;;5052304;28;20059;-47
2022/04/14 13:08:09;;;;;;;1.05;0.60;;;24.90;39.80;;;;;;5051375;28;20021;-51
2022/04/14 13:10:45;;;;;;;2.92;0.80;;;25.10;39.40;;;;;;5052530;28;20059;-45
2022/04/14 13:13:30;;;;;;;1.80;0.70;;;24.90;39.50;;;;;;5052128;28;20148;-42
2022/04/14 13:15:55;;;;;;;2.13;0.80;;;25.20;38.20;;;;;;5044092;28;20081;-43
2022/04/14 13:18:21;;;;;;;2.55;0.65;;;25.10;38.80;;;;;;5044824;28;20503;-45
2022/04/14 13:20:47;;;;;;;1.92;0.73;;;24.40;39.00;;;;;;5043355;28;20036;-49
2022/04/14 13:23:13;;;;;;;0.98;0.73;;;23.60;42.30;;;;;;5051665;28;20021;-42
2022/04/14 13:25:40;;;;;;;2.83;0.90;;;23.20;43.00;;;;;;5051547;28;20128;-50
2022/04/14 13:28:08;;;;;;;2.60;0.85;;;22.60;43.20;;;;;;5051309;28;20479;-52
2022/04/14 13:30:34;;;;;;;1.98;0.95;;;21.90;43.80;;;;;;5033416;28;20086;-50
2022/04/14 13:33:00;;;;;;;2.50;0.88;;;21.30;47.10;;;;;;5031457;28;20104;-50
2022/04/14 13:35:26;;;;;;;4.10;1.08;;;21.20;45.70;;;;;;5031457;28;20566;-55
2022/04/14 13:37:52;;;;;;;3.10;0.80;;;21.00;45.90;;;;;;5032533;28;20053;-47
2022/04/14 13:40:17;;;;;;;2.17;0.90;;;20.60;49.20;;;;;;5050057;28;20636;-49
2022/04/14 13:42:43;;;;;;;2.33;0.80;;;20.30;48.60;;;;;;5051115;28;20035;-51
2022/04/14 13:45:10;;;;;;;2.95;0.70;;;20.10;51.70;;;;;;5040579;28;20504;-52
2022/04/14 13:47:40;;;;;;;1.95;0.68;;;20.20;52.50;;;;;;5033948;28;20022;-49
2022/04/14 13:50:11;;;;;;;2.17;0.80;;;20.60;51.10;;;;;;5047056;28;20037;-45
2022/04/14 13:52:37;;;;;;;2.72;0.80;;;21.00;50.10;;;;;;5048309;28;20021;-48
2022/04/14 13:55:04;;;;;;;2.38;0.75;;;21.30;49.80;;;;;;5044198;28;20073;-55
2022/04/14 13:57:30;;;;;;;3.25;0.90;;;21.60;50.00;;;;;;5048450;28;20035;-57
2022/04/14 13:59:56;;;;;;;3.63;1.05;;;21.60;48.80;;;;;;5030851;28;20112;-53
2022/04/14 14:02:22;;;;;;;3.75;0.70;;;21.50;47.20;;;;;;5049744;28;20041;-44
2022/04/14 14:04:48;;;;;;;1.38;0.68;;;21.10;50.30;;;;;;5049319;28;20041;-45
2022/04/14 14:07:13;;;;;;;2.95;0.80;;;20.90;47.10;;;;;;5049198;28;20021;-44
2022/04/14 14:09:39;;;;;;;1.85;0.70;;;21.00;47.60;;;;;;5049542;28;20104;-49
2022/04/14 14:12:06;;;;;;;4.07;0.75;;;21.10;50.50;;;;;;5034121;28;20103;-44
2022/04/14 14:14:32;;;;;;;4.25;0.90;;;21.10;49.50;;;;;;5047225;28;20078;-50
2022/04/14 14:16:57;;;;;;;4.40;0.90;;;21.10;49.60;;;;;;5049890;28;20037;-52
2022/04/14 14:19:23;;;;;;;2.20;0.80;;;21.00;49.30;;;;;;5050752;28;20070;-50
2022/04/14 14:21:49;;;;;;;3.13;1.00;;;21.10;47.00;;;;;;5029384;28;20074;-45
2022/04/14 14:24:15;;;;;;;2.45;0.90;;;21.00;47.10;;;;;;5030602;28;20029;-44
2022/04/14 14:26:41;;;;;;;2.65;0.70;;;21.10;47.50;;;;;;5030563;28;20075;-53
2022/04/14 14:29:07;;;;;;;1.20;0.70;;;20.90;46.90;;;;;;5047768;28;20025;-45
2022/04/14 14:31:32;;;;;;;1.35;0.70;;;20.70;49.00;;;;;;5045256;28;20044;-45
2022/04/14 14:33:58;;;;;;;6.88;0.88;;;20.70;49.90;;;;;;5031682;28;20028;-49
2022/04/14 14:36:24;;;;;;;1.15;0.60;;;20.60;50.30;;;;;;5047655;28;20021;-50
2022/04/14 14:38:50;;;;;;;2.72;0.75;;;20.60;51.30;;;;;;5050202;28;20044;-54
2022/04/14 14:41:17;;;;;;;3.00;0.80;;;20.70;49.20;;;;;;5048773;28;20122;-42
2022/04/14 14:43:43;;;;;;;2.08;0.80;;;20.50;51.00;;;;;;5049871;28;20396;-49
2022/04/14 14:46:09;;;;;;;3.70;1.00;;;20.40;50.40;;;;;;5049918;28;20025;-43
2022/04/14 14:48:36;;;;;;;2.15;0.90;;;20.40;50.30;;;;;;5048518;28;20033;-48
2022/04/14 14:51:04;;;;;;;1.73;0.95;;;20.20;52.30;;;;;;5043176;28;20558;-52
2022/04/14 14:53:30;;;;;;;3.03;1.00;;;20.00;49.90;;;;;;5042861;28;20523;-48
2022/04/14 14:55:56;;;;;;;2.30;0.73;;;19.90;50.90;;;;;;5049239;28;20082;-44
2022/04/14 15:01:07;;;;;;;3.10;1.27;;;19.70;51.40;;;;;;5041860;28;20119;-44
2022/04/14 15:03:33;;;;;;;2.17;0.93;;;19.60;53.50;;;;;;5043896;28;20048;-44
2022/04/14 15:05:58;;;;;;;4.38;1.30;;;19.50;51.80;;;;;;5039360;28;20168;-51
2022/04/14 15:08:24;;;;;;;3.83;1.15;;;19.30;52.80;;;;;;5049611;28;20107;-45
2022/04/14 15:10:50;;;;;;;1.48;0.80;;;19.40;54.70;;;;;;5046510;28;20054;-47
2022/04/14 15:13:16;;;;;;;3.25;0.95;;;19.40;54.20;;;;;;5050043;28;20040;-51
2022/04/14 15:15:48;;;;;;;2.90;0.90;;;19.40;54.20;;;;;;5041203;28;20392;-45
2022/04/14 15:18:14;;;;;;;4.35;1.00;;;19.40;53.40;;;;;;5052787;28;20108;-47
2022/04/14 15:20:40;;;;;;;4.97;1.30;;;19.30;54.30;;;;;;5043340;28;20025;-46
2022/04/14 15:23:07;;;;;;;2.22;0.90;;;19.20;53.80;;;;;;5052405;28;20075;-52
2022/04/14 15:25:34;;;;;;;2.15;0.90;;;19.20;55.50;;;;;;5052860;28;20400;-43
2022/04/14 15:28:08;;;;;;;3.97;0.95;;;19.20;54.90;;;;;;5052688;28;20025;-49
2022/04/14 15:30:34;;;;;;;2.47;1.13;;;19.20;53.30;;;;;;5053481;28;20055;-42
2022/04/14 15:33:00;;;;;;;2.60;1.20;;;19.20;55.40;;;;;;5054359;28;20025;-52
2022/04/14 15:35:27;;;;;;;5.07;1.30;;;19.30;54.00;;;;;;5053117;28;20021;-43
2022/04/14 15:37:53;;;;;;;3.70;1.13;;;19.10;53.40;;;;;;5040040;28;20021;-52
2022/04/14 15:40:19;;;;;;;1.73;0.68;;;19.00;54.60;;;;;;5034267;28;20037;-51
2022/04/14 15:42:45;;;;;;;3.08;0.90;;;18.90;56.60;;;;;;5046896;28;20033;-56
2022/04/14 15:45:11;;;;;;;4.65;1.17;;;18.80;56.40;;;;;;5054099;28;20079;-50
2022/04/14 15:47:37;;;;;;;2.92;1.00;;;18.90;55.60;;;;;;5043132;28;20021;-48
2022/04/14 15:50:04;;;;;;;3.75;1.25;;;19.00;55.10;;;;;;5050120;28;20025;-46
2022/04/14 15:52:29;;;;;;;4.47;0.95;;;19.00;54.40;;;;;;5048331;28;20064;-50
2022/04/14 15:54:56;;;;;;;2.75;0.85;;;19.00;54.00;;;;;;5047646;28;20065;-43
2022/04/14 15:57:23;;;;;;;2.15;0.90;;;19.00;55.60;;;;;;5038268;28;20093;-47
2022/04/14 15:59:49;;;;;;;4.35;1.10;;;19.00;54.90;;;;;;5049093;28;20018;-43
2022/04/14 16:02:15;;;;;;;2.38;1.00;;;18.90;54.90;;;;;;5033846;28;20116;-47
2022/04/14 16:04:41;;;;;;;3.95;1.30;;;18.80;55.90;;;;;;5033392;28;20548;-48
2022/04/14 16:07:07;;;;;;;3.83;1.10;;;18.80;55.00;;;;;;5033748;28;20026;-42
2022/04/14 16:12:17;;;;;;;2.30;1.08;;;18.80;53.30;;;;;;5033996;28;20044;-48
2022/04/14 16:14:43;;;;;;;3.28;1.40;;;18.50;55.40;;;;;;5039697;28;20069;-47
2022/04/14 16:17:09;;;;;;;2.63;1.15;;;18.40;55.00;;;;;;5053463;28;20028;-53
2022/04/14 16:19:36;;;;;;;4.35;1.35;;;18.30;56.20;;;;;;5053408;28;20068;-52
2022/04/14 16:22:03;;;;;;;4.68;1.25;;;18.10;55.60;;;;;;5053274;28;20541;-53
2022/04/14 16:24:29;;;;;;;2.42;1.30;;;18.10;56.40;;;;;;5051413;28;20037;-51
2022/04/14 16:26:54;;;;;;;2.63;1.10;;;18.00;56.60;;;;;;5050860;28;20043;-55
2022/04/14 16:29:20;;;;;;;3.13;1.00;;;18.00;56.70;;;;;;5051324;28;20035;-49
2022/04/14 16:31:46;;;;;;;3.70;1.20;;;17.80;57.30;;;;;;5051093;28;20335;-52
2022/04/14 16:34:12;;;;;;;3.35;1.30;;;17.70;58.20;;;;;;5047283;28;20021;-46
2022/04/14 16:36:39;;;;;;;3.50;1.17;;;17.80;58.60;;;;;;5036376;28;20033;-49
2022/04/14 16:39:06;;;;;;;3.10;1.10;;;17.70;58.60;;;;;;5049761;28;20025;-49
2022/04/14 16:41:34;;;;;;;4.47;1.35;;;17.80;59.50;;;;;;5052751;28;20484;-48
2022/04/14 16:43:59;;;;;;;2.17;1.17;;;17.80;58.40;;;;;;5048115;28;20064;-52
2022/04/14 16:46:25;;;;;;;4.00;1.20;;;17.80;58.80;;;;;;5048973;28;20130;-49
2022/04/14 16:48:51;;;;;;;4.97;1.25;;;17.80;60.10;;;;;;5031417;28;20132;-51
2022/04/14 16:51:16;;;;;;;4.30;2.05;;;17.70;59.30;;;;;;5032127;28;20373;-45
2022/04/14 16:53:43;;;;;;;3.05;1.33;;;17.70;58.90;;;;;;5031563;28;20515;-47
2022/04/14 16:56:08;;;;;;;4.10;1.48;;;17.70;58.90;;;;;;5041702;28;20512;-52
2022/04/14 16:58:34;;;;;;;3.42;1.50;;;17.70;59.00;;;;;;5050044;28;20048;-45
2022/04/14 17:01:04;;;;;;;3.67;1.42;;;17.60;60.10;;;;;;5048395;28;20013;-54
2022/04/14 17:03:30;;;;;;;4.22;1.42;;;17.50;60.00;;;;;;5048196;28;20052;-53
2022/04/14 17:05:56;;;;;;;5.32;1.67;;;17.50;60.10;;;;;;5048735;28;20104;-49
2022/04/14 17:08:22;;;;;;;4.65;1.20;;;17.40;59.70;;;;;;5044605;28;20115;-49
2022/04/14 17:10:48;;;;;;;5.00;1.67;;;17.30;61.10;;;;;;5042242;28;20025;-48
2022/04/14 17:13:15;;;;;;;3.42;1.27;;;17.30;62.80;;;;;;5046670;28;20033;-56
2022/04/14 17:15:41;;;;;;;4.20;1.50;;;17.40;62.20;;;;;;5047303;28;20068;-49
2022/04/14 17:18:07;;;;;;;3.63;1.45;;;17.30;61.90;;;;;;5044095;28;20032;-51
2022/04/14 17:20:33;;;;;;;3.30;1.40;;;17.30;62.40;;;;;;5047367;28;20079;-48
2022/04/14 17:25:43;;;;;;;4.57;1.40;;;17.20;62.90;;;;;;5044151;28;20229;-52
2022/04/14 17:28:09;;;;;;;3.50;1.50;;;17.10;64.50;;;;;;5043250;28;20543;-48
2022/04/14 17:30:35;;;;;;;3.65;1.30;;;17.00;65.00;;;;;;5042934;28;20036;-47
2022/04/14 17:33:02;;;;;;;3.88;1.45;;;16.90;63.90;;;;;;5040116;28;20033;-55
2022/04/14 17:35:28;;;;;;;3.40;1.20;;;16.90;63.20;;;;;;5043823;28;20048;-53
2022/04/14 17:37:54;;;;;;;5.55;1.35;;;16.80;63.20;;;;;;5041207;28;20030;-51
2022/04/14 17:40:20;;;;;;;2.42;1.48;;;16.70;62.70;;;;;;5044878;28;20025;-49
2022/04/14 17:42:45;;;;;;;2.83;1.33;;;16.60;63.50;;;;;;5048249;28;20108;-51
2022/04/14 17:45:12;;;;;;;5.85;1.50;;;16.60;64.00;;;;;;5043197;28;20048;-48
2022/04/14 17:47:38;;;;;;;5.25;1.90;;;16.50;65.10;;;;;;5040646;28;20068;-44
2022/04/14 17:50:05;;;;;;;4.57;1.40;;;16.40;66.80;;;;;;5041596;28;20033;-51
2022/04/14 17:52:32;;;;;;;3.67;1.20;;;16.30;66.10;;;;;;5046571;28;20025;-52
2022/04/14 17:54:57;;;;;;;3.65;1.60;;;16.10;66.80;;;;;;5048685;28;20124;-51
2022/04/14 17:57:23;;;;;;;2.22;1.30;;;16.10;67.80;;;;;;5047519;28;20150;-49
2022/04/14 17:59:49;;;;;;;3.55;1.10;;;16.00;67.10;;;;;;5046601;28;20025;-52
2022/04/14 18:02:16;;;;;;;4.30;1.65;;;15.90;67.60;;;;;;5050297;28;20060;-46
2022/04/14 18:04:42;;;;;;;5.65;1.23;;;15.80;67.80;;;;;;5049960;28;20139;-44
2022/04/14 18:07:08;;;;;;;5.68;2.00;;;15.80;68.20;;;;;;5047286;28;20104;-42
2022/04/14 18:09:34;;;;;;;3.80;1.30;;;15.60;69.30;;;;;;5041246;28;20029;-48
2022/04/14 18:12:00;;;;;;;4.38;1.38;;;15.60;69.20;;;;;;5039066;28;20033;-56
2022/04/14 18:14:26;;;;;;;16.30;8.75;;;15.50;69.80;;;;;;5032494;28;20487;-49
2022/04/14 18:16:52;;;;;;;27.20;17.48;;;15.40;69.20;;;;;;5044344;28;20021;-44
2022/04/14 18:19:17;;;;;;;13.75;10.50;;;15.40;69.30;;;;;;5045323;28;20029;-44
2022/04/14 18:21:44;;;;;;;15.00;9.27;;;15.30;70.20;;;;;;5045488;28;20391;-50
2022/04/14 18:24:10;;;;;;;12.23;8.10;;;15.20;71.10;;;;;;5036437;28;20037;-47
2022/04/14 18:26:36;;;;;;;5.78;2.80;;;15.20;71.60;;;;;;5043962;28;20499;-48
2022/04/14 18:29:03;;;;;;;3.15;1.50;;;15.10;71.00;;;;;;5033756;28;20114;-45
2022/04/14 18:31:29;;;;;;;5.97;2.88;;;15.00;71.60;;;;;;5039058;28;20063;-51
2022/04/14 18:33:55;;;;;;;11.93;5.10;;;14.90;72.40;;;;;;5041877;28;20514;-42
2022/04/14 18:36:21;;;;;;;8.02;4.03;;;14.80;72.60;;;;;;5038227;28;20081;-44
2022/04/14 18:38:47;;;;;;;8.02;4.28;;;14.70;73.40;;;;;;5035329;28;20056;-46
2022/04/14 18:41:13;;;;;;;10.25;3.10;;;14.60;74.50;;;;;;5043760;28;20033;-49
2022/04/14 18:43:38;;;;;;;7.88;2.35;;;14.40;75.00;;;;;;5034828;28;20037;-49
2022/04/14 18:46:04;;;;;;;5.15;1.42;;;14.30;75.30;;;;;;5046460;28;20047;-50
2022/04/14 18:48:30;;;;;;;7.07;2.35;;;14.20;76.30;;;;;;5028630;28;20026;-43
2022/04/14 18:50:56;;;;;;;5.22;2.25;;;14.10;76.90;;;;;;5039486;28;20029;-48
2022/04/14 18:53:22;;;;;;;4.53;1.88;;;14.10;75.60;;;;;;5030732;28;20049;-41
2022/04/14 18:55:47;;;;;;;3.83;1.27;;;14.00;78.30;;;;;;5030511;28;20399;-48
2022/04/14 18:58:13;;;;;;;6.32;1.63;;;13.90;77.50;;;;;;5030677;28;20029;-48
2022/04/14 19:00:39;;;;;;;4.47;1.42;;;13.90;77.80;;;;;;5030893;28;20036;-40
2022/04/14 19:03:05;;;;;;;4.13;1.38;;;13.80;78.30;;;;;;5047317;28;20112;-51
2022/04/14 19:05:31;;;;;;;7.10;1.52;;;13.80;78.10;;;;;;5034041;28;20069;-41
2022/04/14 19:07:57;;;;;;;2.50;1.40;;;13.70;78.00;;;;;;5044742;28;20025;-46
2022/04/14 19:10:26;;;;;;;4.30;1.38;;;13.60;78.80;;;;;;5072204;28;20079;-44
2022/04/14 19:12:52;;;;;;;3.45;1.27;;;13.60;79.20;;;;;;5044465;28;20039;-49
2022/04/14 19:15:19;;;;;;;2.97;1.40;;;13.50;79.80;;;;;;5040311;28;20029;-53
2022/04/14 19:17:44;;;;;;;4.95;1.98;;;13.50;80.70;;;;;;5031830;28;20029;-43
2022/04/14 19:20:11;;;;;;;4.50;1.40;;;13.50;80.90;;;;;;5036283;28;20029;-45
2022/04/14 19:22:36;;;;;;;4.22;1.50;;;13.40;81.10;;;;;;5049011;28;20025;-47
2022/04/14 19:25:05;;;;;;;3.80;1.50;;;13.30;81.00;;;;;;5045150;28;20044;-51
2022/04/14 19:27:34;;;;;;;5.32;1.60;;;13.30;80.90;;;;;;5030407;28;20021;-46
2022/04/14 19:30:01;;;;;;;3.38;1.52;;;13.20;81.60;;;;;;5045575;28;20051;-49
2022/04/14 19:32:26;;;;;;;5.07;1.42;;;13.10;81.80;;;;;;5049009;28;20427;-49
2022/04/14 19:34:52;;;;;;;5.68;1.63;;;13.00;82.60;;;;;;5048652;28;20029;-53
2022/04/14 19:37:18;;;;;;;3.83;1.52;;;13.00;82.80;;;;;;5048117;28;20025;-47
2022/04/14 19:39:44;;;;;;;5.05;1.50;;;12.90;83.20;;;;;;5049592;28;20029;-43
2022/04/14 19:42:10;;;;;;;4.28;1.63;;;12.90;82.80;;;;;;5049584;28;20021;-48
2022/04/14 19:44:36;;;;;;;4.45;1.75;;;12.90;83.90;;;;;;5047116;28;20880;-48
2022/04/14 19:47:02;;;;;;;4.45;1.60;;;12.90;84.00;;;;;;5048612;28;20498;-49
2022/04/14 19:49:27;;;;;;;5.72;2.03;;;12.90;83.90;;;;;;5049144;28;20037;-55
2022/04/14 19:51:53;;;;;;;5.78;2.30;;;12.80;84.00;;;;;;5045801;28;20029;-47